Time;durP1;ratioP1;P1;durP2;ratioP2;P2;SDS_P1;SDS_P2;PMS_P1;PMS_P2;Temp;Humidity;BMP_temperature;BMP_pressure;BME280_temperature;BME280_humidity;BME280_pressure;Samples;Min_cycle;Max_cycle;Signal;HPM_P1;HPM_P2
2022/03/12 00:02:25;;;;;;;;;5.00;4.00;;;;;10.67;100.00;100716.53;4988989;28;45058;-75
2022/03/12 00:04:50;;;;;;;;;7.00;3.67;;;;;10.66;100.00;100725.69;4985554;28;45238;-77
2022/03/12 00:07:16;;;;;;;;;2.67;2.67;;;;;10.34;100.00;100676.19;4985502;28;45600;-79
2022/03/12 00:09:43;;;;;;;;;3.00;3.00;;;;;10.64;100.00;100733.03;4988451;28;45248;-79
2022/03/12 00:12:10;;;;;;;;;3.00;3.00;;;;;10.47;100.00;100717.00;4987582;28;45237;-78
2022/03/12 00:14:37;;;;;;;;;4.00;3.33;;;;;10.61;100.00;100752.31;4966294;28;45114;-77
2022/03/12 00:17:04;;;;;;;;;2.00;2.00;;;;;10.59;100.00;100730.66;4988916;28;45248;-79
2022/03/12 00:19:30;;;;;;;;;2.67;2.67;;;;;10.59;100.00;100740.63;4988824;28;45391;-78
2022/03/12 00:21:55;;;;;;;;;5.00;5.00;;;;;10.56;100.00;100741.72;4984246;28;45423;-78
2022/03/12 00:24:22;;;;;;;;;5.33;3.00;;;;;10.56;100.00;100738.16;4967119;28;45261;-78
2022/03/12 00:26:50;;;;;;;;;4.00;3.00;;;;;9.83;100.00;100632.47;4974743;28;47310;-79
2022/03/12 00:29:16;;;;;;;;;4.00;3.00;;;;;10.54;100.00;100754.56;4980226;28;45624;-80
2022/03/12 00:31:43;;;;;;;;;4.00;4.00;;;;;10.11;100.00;100686.72;4982564;28;45552;-80
2022/03/12 00:34:09;;;;;;;;;2.00;2.00;;;;;10.54;100.00;100760.00;4985295;28;45105;-80
2022/03/12 00:36:34;;;;;;;;;3.00;3.00;;;;;9.64;100.00;100627.41;4989606;28;45722;-78
2022/03/12 00:39:00;;;;;;;;;5.67;4.00;;;;;8.77;100.00;100463.03;4988928;28;45373;-78
2022/03/12 00:41:29;;;;;;;;;2.00;2.00;;;;;10.55;100.00;100767.19;4988839;28;45070;-79
2022/03/12 00:43:54;;;;;;;;;3.00;3.00;;;;;10.57;100.00;100777.94;4988132;28;45447;-78
2022/03/12 00:46:20;;;;;;;;;3.00;3.00;;;;;9.55;100.00;100601.72;4960770;28;46039;-79
2022/03/12 00:48:45;;;;;;;;;4.00;4.00;;;;;10.07;100.00;100703.31;4988558;28;45229;-78
2022/03/12 00:51:11;;;;;;;;;2.00;2.00;;;;;10.58;100.00;100774.25;4981744;28;45299;-78
2022/03/12 00:53:39;;;;;;;;;2.67;2.67;;;;;10.48;100.00;100754.09;4977311;28;45537;-78
2022/03/12 00:56:05;;;;;;;;;2.00;2.00;;;;;10.49;100.00;100761.25;4978114;28;45689;-78
2022/03/12 00:58:31;;;;;;;;;3.00;3.00;;;;;10.62;100.00;100792.09;4969860;28;45231;-78
2022/03/12 01:00:57;;;;;;;;;3.00;3.00;;;;;9.64;100.00;100623.81;4972233;28;45517;-78
2022/03/12 01:03:22;;;;;;;;;3.00;3.00;;;;;10.67;100.00;100797.25;4975295;28;45426;-79
2022/03/12 01:05:47;;;;;;;;;3.00;3.00;;;;;10.69;100.00;100798.84;4977321;28;45746;-77
2022/03/12 01:08:13;;;;;;;;;3.00;2.00;;;;;10.51;100.00;100773.78;4974083;28;45587;-76
2022/03/12 01:10:38;;;;;;;;;3.33;3.33;;;;;10.74;100.00;100814.88;4977907;28;45741;-77
2022/03/12 01:13:04;;;;;;;;;3.33;2.33;;;;;10.76;100.00;100812.94;4981682;28;45585;-77
2022/03/12 01:15:29;;;;;;;;;3.67;3.33;;;;;10.06;100.00;100707.88;4978910;28;45823;-76
2022/03/12 01:17:55;;;;;;;;;2.00;2.00;;;;;9.73;100.00;100644.91;4981259;28;45424;-77
2022/03/12 01:20:22;;;;;;;;;4.00;4.00;;;;;10.75;100.00;100831.09;4976744;28;45807;-77
2022/03/12 01:22:48;;;;;;;;;4.00;3.00;;;;;9.81;100.00;100662.44;4975862;28;45485;-77
2022/03/12 01:25:13;;;;;;;;;4.33;3.67;;;;;10.48;100.00;100770.41;4977223;28;45822;-76
2022/03/12 01:27:38;;;;;;;;;3.67;3.67;;;;;10.40;100.00;100765.47;4986501;28;45221;-78
2022/03/12 01:30:07;;;;;;;;;3.00;3.00;;;;;10.76;100.00;100827.41;4987976;28;45028;-78
2022/03/12 01:32:33;;;;;;;;;3.00;3.00;;;;;10.76;100.00;100821.09;4985440;28;45206;-78
2022/03/12 01:34:58;;;;;;;;;4.00;4.00;;;;;10.62;100.00;100795.69;4982986;28;45430;-78
2022/03/12 01:37:24;;;;;;;;;8.33;3.67;;;;;10.70;100.00;100797.91;4980785;28;45467;-78
2022/03/12 01:39:49;;;;;;;;;5.00;5.00;;;;;9.16;100.00;100537.34;4985542;28;45209;-79
2022/03/12 01:42:20;;;;;;;;;3.00;3.00;;;;;10.77;100.00;100807.38;4987726;28;44770;-78
2022/03/12 01:44:46;;;;;;;;;4.33;3.67;;;;;10.77;100.00;100804.66;4987344;28;45489;-79
2022/03/12 01:47:15;;;;;;;;;4.00;3.00;;;;;10.77;100.00;100818.28;4984440;28;45413;-78
2022/03/12 01:49:42;;;;;;;;;3.00;3.00;;;;;9.70;100.00;100648.72;4986720;28;45173;-78
2022/03/12 01:52:07;;;;;;;;;5.67;4.67;;;;;9.86;100.00;100679.31;4989940;28;45074;-79
2022/03/12 01:54:34;;;;;;;;;3.00;3.00;;;;;10.69;100.00;100809.75;4964493;28;46691;-78
2022/03/12 01:57:00;;;;;;;;;4.00;3.00;;;;;10.30;100.00;100750.75;4980272;28;45441;-79
2022/03/12 01:59:25;;;;;;;;;4.00;2.33;;;;;10.05;100.00;100702.56;4982091;28;45819;-78
2022/03/12 02:01:52;;;;;;;;;3.67;2.00;;;;;10.62;100.00;100817.44;4984230;28;45545;-78
2022/03/12 02:04:22;;;;;;;;;2.67;2.67;;;;;10.61;100.00;100815.69;4978799;28;45533;-79
2022/03/12 02:06:50;;;;;;;;;4.00;2.33;;;;;9.79;100.00;100712.41;4982764;28;45529;-78
2022/03/12 02:09:17;;;;;;;;;6.33;5.33;;;;;9.12;100.00;100581.03;4981203;28;45492;-78
2022/03/12 02:11:51;;;;;;;;;4.33;3.00;;;;;10.30;100.00;100795.09;4981835;28;45408;-80
2022/03/12 02:14:20;;;;;;;;;2.00;2.00;;;;;10.57;100.00;100851.34;4985148;28;46251;-79
2022/03/12 02:16:51;;;;;;;;;3.67;3.67;;;;;10.27;100.00;100794.41;4978622;28;45378;-79
2022/03/12 02:19:17;;;;;;;;;5.00;3.33;;;;;10.25;100.00;100790.94;4974858;28;45470;-78
2022/03/12 02:21:55;;;;;;;;;3.00;3.00;;;;;9.47;100.00;100655.59;4982497;28;45464;-79
2022/03/12 02:24:23;;;;;;;;;4.00;3.00;;;;;10.29;100.00;100798.81;4984993;28;45435;-78
2022/03/12 02:26:49;;;;;;;;;3.67;3.67;;;;;9.44;100.00;100655.81;4979052;28;45482;-78
2022/03/12 02:29:20;;;;;;;;;4.33;2.33;;;;;10.53;100.00;100841.63;4982365;28;45416;-78
2022/03/12 02:31:48;;;;;;;;;3.00;2.33;;;;;10.41;100.00;100829.72;4990626;28;45185;-78
2022/03/12 02:34:14;;;;;;;;;5.00;2.00;;;;;10.52;100.00;100848.06;4988996;28;46105;-79
2022/03/12 02:36:40;;;;;;;;;5.00;3.00;;;;;10.50;100.00;100844.56;4980704;28;45541;-81
2022/03/12 02:39:07;;;;;;;;;3.67;3.67;;;;;10.34;100.00;100817.50;4987985;28;45225;-79
2022/03/12 02:41:34;;;;;;;;;3.67;3.33;;;;;10.23;100.00;100811.84;4986245;28;45243;-78
2022/03/12 02:43:59;;;;;;;;;3.00;3.00;;;;;9.74;100.00;100719.97;4989086;28;45659;-80
2022/03/12 02:46:28;;;;;;;;;3.00;3.00;;;;;10.18;100.00;100814.88;4986060;28;45347;-80
2022/03/12 02:48:54;;;;;;;;;5.00;5.00;;;;;9.51;100.00;100683.44;4984943;28;45406;-78
2022/03/12 02:51:22;;;;;;;;;7.00;4.33;;;;;9.67;100.00;100719.47;4981543;28;45460;-80
2022/03/12 02:53:51;;;;;;;;;9.67;6.00;;;;;10.43;100.00;100838.66;4974734;28;45666;-76
2022/03/12 02:56:19;;;;;;;;;4.00;4.00;;;;;8.84;100.00;100588.22;4976042;28;45414;-77
2022/03/12 02:58:45;;;;;;;;;3.33;3.33;;;;;10.36;100.00;100837.31;4973614;28;45523;-77
2022/03/12 03:01:14;;;;;;;;;3.67;3.33;;;;;9.47;100.00;100700.88;4959716;28;45272;-79
2022/03/12 03:03:43;;;;;;;;;3.33;2.00;;;;;10.13;100.00;100798.84;4974017;28;47718;-79
2022/03/12 03:06:09;;;;;;;;;4.00;2.33;;;;;8.65;100.00;100544.25;4994378;28;44743;-79
2022/03/12 03:08:39;;;;;;;;;3.00;3.00;;;;;10.43;100.00;100857.66;4982607;28;45354;-80
2022/03/12 03:11:10;;;;;;;;;4.00;4.00;;;;;8.75;100.00;100583.34;4980971;28;45422;-78
2022/03/12 03:13:39;;;;;;;;;3.00;3.00;;;;;10.41;100.00;100854.19;4976485;28;45457;-81
2022/03/12 03:16:18;;;;;;;;;5.00;4.00;;;;;10.06;100.00;100802.09;4974999;28;45488;-79
2022/03/12 03:18:50;;;;;;;;;5.00;5.00;;;;;8.84;100.00;100593.63;4988504;28;45016;-79
2022/03/12 03:21:17;;;;;;;;;3.67;3.00;;;;;9.36;100.00;100677.13;4990078;28;45154;-80
2022/03/12 03:23:46;;;;;;;;;3.67;2.33;;;;;9.95;100.00;100772.91;4989651;28;45238;-78
2022/03/12 03:26:14;;;;;;;;;5.67;3.00;;;;;10.42;100.00;100865.94;4968395;28;45098;-78
2022/03/12 03:28:40;;;;;;;;;3.00;3.00;;;;;10.24;100.00;100833.53;4967253;28;45032;-79
2022/03/12 03:31:06;;;;;;;;;3.33;3.33;;;;;9.24;100.00;100678.78;4987340;28;45500;-78
2022/03/12 03:33:32;;;;;;;;;3.67;3.67;;;;;10.37;100.00;100858.94;4986700;28;46920;-77
2022/03/12 03:35:58;;;;;;;;;2.67;2.00;;;;;10.36;100.00;100859.91;4981611;28;45504;-77
2022/03/12 03:38:23;;;;;;;;;2.67;2.00;;;;;10.37;100.00;100867.09;4989028;28;45077;-75
2022/03/12 03:40:49;;;;;;;;;3.00;3.00;;;;;9.66;100.00;100744.00;4990313;28;45448;-79
2022/03/12 03:43:19;;;;;;;;;6.67;4.00;;;;;9.24;100.00;100670.66;4969657;28;46794;-78
2022/03/12 03:45:49;;;;;;;;;4.33;3.00;;;;;10.10;100.00;100819.94;4981536;28;45155;-78
2022/03/12 03:48:17;;;;;;;;;0.33;0.00;;;;;8.98;100.00;100625.31;4978520;28;45415;-78
2022/03/12 03:50:45;;;;;;;;;5.00;2.33;;;;;9.94;100.00;100797.44;4983885;28;45410;-78
2022/03/12 03:53:13;;;;;;;;;6.00;3.67;;;;;10.32;100.00;100871.94;4981843;28;46070;-77
2022/03/12 03:55:39;;;;;;;;;6.33;4.00;;;;;10.30;100.00;100868.47;4979983;28;45618;-77
2022/03/12 03:58:05;;;;;;;;;5.33;2.33;;;;;9.47;100.00;100734.31;4981501;28;45359;-78
2022/03/12 04:00:33;;;;;;;;;8.33;4.33;;;;;9.39;100.00;100747.50;4982260;28;45579;-78
2022/03/12 04:03:05;;;;;;;;;3.00;3.00;;;;;9.31;100.00;100725.38;4980058;28;45968;-77
2022/03/12 04:05:32;;;;;;;;;4.00;2.67;;;;;10.27;100.00;100874.09;4980581;28;45458;-77
2022/03/12 04:08:00;;;;;;;;;5.00;3.33;;;;;9.13;100.00;100696.72;4964634;28;45374;-78
2022/03/12 04:10:25;;;;;;;;;2.67;2.67;;;;;9.96;100.00;100823.53;4960297;28;45722;-78
2022/03/12 04:12:51;;;;;;;;;4.00;4.00;;;;;10.18;100.00;100860.19;4980853;28;45403;-78
2022/03/12 04:15:17;;;;;;;;;2.67;2.67;;;;;9.26;100.00;100731.09;4983628;28;45028;-77
2022/03/12 04:17:44;;;;;;;;;2.00;2.00;;;;;8.51;100.00;100577.59;4980978;28;45372;-77
2022/03/12 04:20:14;;;;;;;;;6.00;3.00;;;;;9.52;100.00;100753.88;4984784;28;45702;-77
2022/03/12 04:22:39;;;;;;;;;2.67;2.67;;;;;10.18;100.00;100882.78;4987886;28;45972;-79
2022/03/12 04:25:11;;;;;;;;;4.00;3.00;;;;;10.19;100.00;100878.22;4992386;28;45146;-80
2022/03/12 04:27:38;;;;;;;;;2.00;2.00;;;;;10.17;100.00;100878.34;4986111;28;45413;-76
2022/03/12 04:30:05;;;;;;;;;4.00;3.67;;;;;9.96;100.00;100847.09;4988630;28;45137;-75
2022/03/12 04:32:31;;;;;;;;;2.00;2.00;;;;;9.23;100.00;100731.31;4988175;28;45383;-78
2022/03/12 04:34:57;;;;;;;;;1.67;1.67;;;;;9.70;100.00;100817.03;4988198;28;45018;-81
2022/03/12 04:37:22;;;;;;;;;1.67;1.67;;;;;10.08;100.00;100890.63;4987515;28;45125;-79
2022/03/12 04:39:49;;;;;;;;;3.00;3.00;;;;;8.69;100.00;100667.75;4985375;28;45453;-80
2022/03/12 04:42:18;;;;;;;;;4.00;2.67;;;;;9.45;100.00;100779.66;4981217;28;45307;-80
2022/03/12 04:44:43;;;;;;;;;4.00;3.00;;;;;9.92;100.00;100860.00;4978674;28;45578;-79
2022/03/12 04:47:10;;;;;;;;;3.67;3.67;;;;;8.92;100.00;100688.03;4982038;28;45449;-78
2022/03/12 04:49:36;;;;;;;;;3.00;3.00;;;;;10.08;100.00;100911.50;4980687;28;45039;-79
2022/03/12 04:52:01;;;;;;;;;3.00;3.00;;;;;10.08;100.00;100892.50;4977030;28;45974;-80
2022/03/12 04:54:33;;;;;;;;;3.00;3.00;;;;;10.09;100.00;100897.84;4982031;28;45504;-80
2022/03/12 04:56:58;;;;;;;;;2.67;2.67;;;;;9.86;100.00;100852.22;4979820;28;45394;-78
2022/03/12 04:59:24;;;;;;;;;5.00;3.00;;;;;9.57;100.00;100807.88;4975395;28;45671;-78
2022/03/12 05:01:49;;;;;;;;;6.00;3.00;;;;;10.07;100.00;100898.91;4951174;28;46537;-77
2022/03/12 05:04:15;;;;;;;;;4.33;4.00;;;;;9.02;100.00;100717.22;4973444;28;45666;-77
2022/03/12 05:06:40;;;;;;;;;2.33;2.00;;;;;10.09;100.00;100935.00;4979463;28;45535;-78
2022/03/12 05:09:05;;;;;;;;;2.00;2.00;;;;;9.88;100.00;100877.44;4978632;28;46064;-78
2022/03/12 05:11:34;;;;;;;;;3.00;2.67;;;;;10.11;100.00;100916.75;4969695;28;45499;-78
2022/03/12 05:14:00;;;;;;;;;4.00;3.00;;;;;9.29;100.00;100781.59;4969774;28;45687;-78
2022/03/12 05:16:27;;;;;;;;;3.00;2.67;;;;;10.08;100.00;100922.38;4971741;28;45583;-78
2022/03/12 05:18:55;;;;;;;;;3.33;2.67;;;;;9.62;100.00;100849.19;4970468;28;45500;-77
2022/03/12 05:21:20;;;;;;;;;2.00;2.00;;;;;9.99;100.00;100912.09;4971873;28;46660;-78
2022/03/12 05:23:46;;;;;;;;;2.33;1.33;;;;;10.04;100.00;100918.13;4970669;28;45579;-78
2022/03/12 05:26:11;;;;;;;;;2.00;2.00;;;;;10.03;100.00;100925.38;4963499;28;45803;-78
2022/03/12 05:28:41;;;;;;;;;2.67;2.00;;;;;10.02;100.00;100918.19;4969731;28;45422;-78
2022/03/12 05:31:09;;;;;;;;;2.00;2.00;;;;;9.14;100.00;100775.25;4970108;28;45627;-78
2022/03/12 05:33:35;;;;;;;;;3.00;1.67;;;;;9.73;100.00;100878.38;4973701;28;45607;-78
2022/03/12 05:36:03;;;;;;;;;2.00;2.00;;;;;9.29;100.00;100817.72;4972799;28;45814;-78
2022/03/12 05:38:31;;;;;;;;;3.67;3.67;;;;;9.07;100.00;100771.16;4972785;28;45497;-78
2022/03/12 05:40:58;;;;;;;;;4.00;2.33;;;;;9.64;100.00;100868.13;4969933;28;45572;-75
2022/03/12 05:43:25;;;;;;;;;3.67;2.00;;;;;10.01;100.00;100934.59;4979048;28;45582;-78
2022/03/12 05:45:51;;;;;;;;;3.67;3.00;;;;;10.00;100.00;100935.56;4978132;28;45543;-78
2022/03/12 05:48:17;;;;;;;;;2.00;2.00;;;;;9.99;100.00;100939.25;4954758;28;45517;-77
2022/03/12 05:50:45;;;;;;;;;3.00;3.00;;;;;9.99;100.00;100937.41;4972096;28;45478;-79
2022/03/12 05:53:14;;;;;;;;;4.67;3.00;;;;;9.98;100.00;100941.06;4972379;28;45684;-78
2022/03/12 05:55:40;;;;;;;;;4.67;3.00;;;;;9.98;100.00;100946.50;4947500;28;45593;-77
2022/03/12 05:58:07;;;;;;;;;3.00;2.00;;;;;9.99;100.00;100948.28;4974551;28;45736;-78
2022/03/12 06:00:34;;;;;;;;;3.00;3.00;;;;;9.03;100.00;100785.88;4972258;28;45572;-78
2022/03/12 06:03:00;;;;;;;;;3.00;3.00;;;;;10.01;100.00;100956.31;4972103;28;45673;-77
2022/03/12 06:05:26;;;;;;;;;5.33;2.67;;;;;8.67;100.00;100718.44;4974238;28;45445;-79
2022/03/12 06:07:53;;;;;;;;;2.00;2.00;;;;;9.12;100.00;100801.56;4973861;28;45665;-78
2022/03/12 06:10:24;;;;;;;;;3.33;3.00;;;;;9.73;100.00;100902.81;4956614;28;46297;-77
2022/03/12 06:12:51;;;;;;;;;2.00;2.00;;;;;10.02;100.00;100960.78;4959592;28;45315;-77
2022/03/12 06:15:19;;;;;;;;;3.67;3.00;;;;;9.66;100.00;100896.03;4967868;28;45528;-78
2022/03/12 06:17:45;;;;;;;;;2.00;2.00;;;;;9.85;100.00;100937.38;4974247;28;45633;-78
2022/03/12 06:20:16;;;;;;;;;4.67;4.00;;;;;9.76;100.00;100922.50;4972935;28;46614;-78
2022/03/12 06:22:43;;;;;;;;;4.00;4.00;;;;;10.01;100.00;100968.06;4976761;28;45763;-78
2022/03/12 06:25:11;;;;;;;;;4.67;4.00;;;;;9.68;100.00;100911.28;4980335;28;46045;-78
2022/03/12 06:27:37;;;;;;;;;3.00;3.00;;;;;9.76;100.00;100929.78;4989042;28;45603;-79
2022/03/12 06:30:07;;;;;;;;;7.33;5.67;;;;;9.98;100.00;100976.38;4981278;28;46045;-79
2022/03/12 06:32:34;;;;;;;;;8.33;5.00;;;;;9.97;100.00;100982.78;4983085;28;45601;-79
2022/03/12 06:34:59;;;;;;;;;6.00;5.00;;;;;9.97;100.00;100998.22;4981871;28;45800;-81
2022/03/12 06:37:25;;;;;;;;;3.67;3.67;;;;;8.95;100.00;100828.84;4979344;28;45414;-79
2022/03/12 06:39:55;;;;;;;;;3.67;2.33;;;;;9.94;100.00;100973.97;4976540;28;46148;-79
2022/03/12 06:42:27;;;;;;;;;5.00;4.33;;;;;8.70;100.00;100794.16;4951703;28;45693;-78
2022/03/12 06:44:56;;;;;;;;;3.67;3.67;;;;;8.86;100.00;100826.66;4974583;28;45839;-78
2022/03/12 06:47:24;;;;;;;;;5.67;4.33;;;;;9.91;100.00;100990.44;4977716;28;45524;-80
2022/03/12 06:49:49;;;;;;;;;3.33;1.00;;;;;8.67;100.00;100781.69;4972904;28;46694;-80
2022/03/12 06:52:15;;;;;;;;;5.00;2.67;;;;;9.27;100.00;100903.75;4970045;28;45499;-81
2022/03/12 06:54:41;;;;;;;;;3.33;3.00;;;;;8.75;100.00;100817.31;4954128;28;45477;-79
2022/03/12 06:57:06;;;;;;;;;3.67;3.67;;;;;9.45;100.00;100947.91;4971703;28;45470;-78
2022/03/12 06:59:32;;;;;;;;;2.67;2.00;;;;;8.95;100.00;100892.06;4971594;28;46461;-80
2022/03/12 07:01:57;;;;;;;;;3.33;3.33;;;;;8.05;100.00;100732.81;4971518;28;45385;-79
2022/03/12 07:04:22;;;;;;;;;3.00;3.00;;;;;9.77;100.00;101026.56;4971727;28;45533;-78
2022/03/12 07:06:49;;;;;;;;;3.33;3.00;;;;;9.17;100.00;100937.81;4972156;28;45538;-78
2022/03/12 07:09:18;;;;;;;;;3.67;3.67;;;;;9.52;100.00;100997.28;4982950;28;45446;-78
2022/03/12 07:11:43;;;;;;;;;3.00;3.00;;;;;8.47;100.00;100818.06;4978264;28;45600;-78
2022/03/12 07:14:10;;;;;;;;;3.00;3.00;;;;;9.65;100.00;101014.59;4970429;28;45441;-78
2022/03/12 07:16:36;;;;;;;;;3.00;3.00;;;;;9.78;100.00;101033.75;4971830;28;45850;-77
2022/03/12 07:19:02;;;;;;;;;3.00;3.00;;;;;9.56;100.00;101012.41;4976661;28;45429;-77
2022/03/12 07:21:28;;;;;;;;;5.33;4.00;;;;;9.79;100.00;101043.66;4970374;28;45513;-77
2022/03/12 07:23:54;;;;;;;;;5.33;3.67;;;;;9.80;100.00;101045.41;4973910;28;45496;-78
2022/03/12 07:26:20;;;;;;;;;5.00;3.67;;;;;8.54;100.00;100841.13;4956164;28;45307;-76
2022/03/12 07:28:47;;;;;;;;;6.00;5.00;;;;;9.49;100.00;101000.19;4983958;28;45770;-77
2022/03/12 07:31:14;;;;;;;;;3.00;3.00;;;;;8.25;100.00;100780.44;4969263;28;45466;-78
2022/03/12 07:33:39;;;;;;;;;3.00;3.00;;;;;8.26;100.00;100778.59;4969455;28;45527;-77
2022/03/12 07:36:05;;;;;;;;;4.67;3.67;;;;;9.70;100.00;101008.91;4969780;28;45526;-77
2022/03/12 07:38:30;;;;;;;;;3.00;3.00;;;;;9.30;100.00;100968.69;4969353;28;46446;-78
2022/03/12 07:40:56;;;;;;;;;6.00;5.33;;;;;9.90;100.00;101053.88;4968752;28;45577;-76
2022/03/12 07:43:21;;;;;;;;;4.67;3.00;;;;;9.43;100.00;100978.81;4970247;28;45442;-78
2022/03/12 07:45:47;;;;;;;;;5.33;3.00;;;;;9.36;100.00;100971.03;4969706;28;45467;-78
2022/03/12 07:48:13;;;;;;;;;5.00;4.00;;;;;9.35;100.00;100974.72;4969066;28;45667;-76
2022/03/12 07:50:39;;;;;;;;;5.00;3.00;;;;;8.12;100.00;100755.03;4951267;28;45486;-76
2022/03/12 07:53:04;;;;;;;;;3.67;3.67;;;;;9.53;100.00;100980.91;4969376;28;45663;-77
2022/03/12 07:55:30;;;;;;;;;3.00;3.00;;;;;9.90;100.00;101049.31;4969324;28;45469;-77
2022/03/12 07:57:55;;;;;;;;;3.00;3.00;;;;;9.84;100.00;101034.28;4968568;28;45936;-76
2022/03/12 08:00:21;;;;;;;;;3.00;3.00;;;;;9.78;100.00;101023.78;4970226;28;45520;-77
2022/03/12 08:02:47;;;;;;;;;3.00;3.00;;;;;9.54;100.00;100998.06;4970909;28;45568;-82
2022/03/12 08:05:16;;;;;;;;;4.00;4.00;;;;;9.98;100.00;101055.16;4953368;28;45621;-77
2022/03/12 08:07:41;;;;;;;;;4.33;4.33;;;;;10.00;100.00;101085.84;4970780;28;46870;-76
2022/03/12 08:10:08;;;;;;;;;4.33;4.33;;;;;10.01;100.00;101081.28;4970497;28;45469;-77
2022/03/12 08:12:35;;;;;;;;;6.67;6.67;;;;;9.00;100.00;100936.06;4971024;28;45531;-76
2022/03/12 08:15:05;;;;;;;;;20.00;18.75;;;;;8.74;100.00;100896.03;4970563;28;45655;-79
2022/03/12 08:17:31;;;;;;;;;15.00;12.25;;;;;8.45;100.00;100838.06;4970783;28;45612;-76
2022/03/12 08:19:56;;;;;;;;;10.67;8.33;;;;;9.93;100.00;101073.56;4970413;28;45513;-76
2022/03/12 08:22:22;;;;;;;;;7.33;6.00;;;;;9.44;100.00;101003.16;4970346;28;45553;-76
2022/03/12 08:24:49;;;;;;;;;6.67;6.67;;;;;8.64;100.00;100862.28;4970696;28;45487;-77
2022/03/12 08:27:15;;;;;;;;;5.33;5.33;;;;;10.10;100.00;101110.63;4970586;28;47213;-76
2022/03/12 08:29:44;;;;;;;;;10.33;8.67;;;;;9.95;100.00;101087.94;4973577;28;45467;-77
2022/03/12 08:32:11;;;;;;;;;7.00;5.00;;;;;9.87;100.00;101065.78;4957668;28;45546;-78
2022/03/12 08:34:37;;;;;;;;;9.00;6.00;;;;;9.52;100.00;101025.28;4970650;28;45538;-77
2022/03/12 08:37:03;;;;;;;;;6.67;5.67;;;;;10.22;100.00;101128.88;4970055;28;45953;-77
2022/03/12 08:39:29;;;;;;;;;4.00;4.00;;;;;10.09;100.00;101103.44;4970600;28;45692;-75
2022/03/12 08:41:56;;;;;;;;;4.67;3.00;;;;;10.24;100.00;101129.72;4969825;28;45517;-78
2022/03/12 08:44:21;;;;;;;;;5.67;4.67;;;;;10.01;100.00;101078.56;4970184;28;45465;-79
2022/03/12 08:46:47;;;;;;;;;6.00;5.00;;;;;8.78;100.00;100882.22;4970121;28;45456;-80
2022/03/12 08:49:14;;;;;;;;;4.00;4.00;;;;;9.45;100.00;100980.47;4970367;28;45464;-79
2022/03/12 08:51:41;;;;;;;;;6.67;4.00;;;;;10.19;100.00;101092.88;4968818;28;45330;-79
2022/03/12 08:54:06;;;;;;;;;4.00;4.00;;;;;8.75;100.00;100858.00;4963031;28;45628;-78
2022/03/12 08:56:32;;;;;;;;;4.00;4.00;;;;;9.99;100.00;101045.19;4969812;28;45822;-79
2022/03/12 08:58:58;;;;;;;;;2.67;2.67;;;;;9.66;100.00;101008.19;4969848;28;45509;-78
2022/03/12 09:01:25;;;;;;;;;3.67;3.67;;;;;9.54;100.00;100968.22;4969766;28;45456;-79
2022/03/12 09:03:50;;;;;;;;;5.67;5.67;;;;;9.37;100.00;100944.78;4970368;28;45539;-81
2022/03/12 09:06:17;;;;;;;;;5.00;5.00;;;;;10.44;100.00;101131.25;4970091;28;45561;-79
2022/03/12 09:08:44;;;;;;;;;4.00;4.00;;;;;10.49;100.00;101122.78;4969832;28;45502;-81
2022/03/12 09:11:10;;;;;;;;;6.67;5.67;;;;;10.14;100.00;101053.28;4969746;28;45615;-80
2022/03/12 09:13:36;;;;;;;;;4.00;4.00;;;;;9.86;100.00;101018.75;4969882;28;45423;-79
2022/03/12 09:16:02;;;;;;;;;3.00;3.00;;;;;10.19;100.00;101053.00;4969604;28;45509;-78
2022/03/12 09:18:28;;;;;;;;;14.50;13.00;;;;;10.54;100.00;101129.72;4969305;28;45438;-79
2022/03/12 09:20:54;;;;;;;;;7.67;5.00;;;;;10.55;100.00;101119.72;4969929;28;45422;-79
2022/03/12 09:23:21;;;;;;;;;4.00;4.00;;;;;10.56;100.00;101118.75;4969825;28;45394;-78
2022/03/12 09:25:48;;;;;;;;;6.00;5.00;;;;;10.58;100.00;101116.78;4969704;28;46017;-78
2022/03/12 09:28:14;;;;;;;;;6.33;6.33;;;;;9.42;100.00;100937.22;4969159;28;45428;-78
2022/03/12 09:30:42;;;;;;;;;9.33;6.33;;;;;10.64;100.00;101124.56;4969682;28;45592;-81
2022/03/12 09:33:08;;;;;;;;;5.67;5.00;;;;;9.86;100.00;100986.16;4969294;28;45608;-77
2022/03/12 09:35:34;;;;;;;;;6.33;5.33;;;;;10.68;100.00;101114.38;4969320;28;45434;-79
2022/03/12 09:38:01;;;;;;;;;10.00;10.00;;;;;9.73;100.00;100949.88;4970532;28;45406;-78
2022/03/12 09:40:28;;;;;;;;;6.00;5.67;;;;;10.51;100.00;101091.84;4969890;28;45454;-79
2022/03/12 09:42:53;;;;;;;;;14.00;12.33;;;;;10.66;100.00;101098.19;4969185;28;45640;-79
2022/03/12 09:45:22;;;;;;;;;6.00;6.00;;;;;10.55;100.00;101077.09;4969346;28;46396;-77
2022/03/12 09:47:48;;;;;;;;;11.33;10.33;;;;;9.72;100.00;100922.78;4951600;28;45512;-82
2022/03/12 09:50:14;;;;;;;;;4.00;2.00;;;;;10.83;100.00;101108.88;4969436;28;45422;-79
2022/03/12 09:52:40;;;;;;;;;7.00;5.00;;;;;9.78;100.00;100941.41;4969983;28;45538;-77
2022/03/12 09:55:06;;;;;;;;;8.00;6.00;;;;;10.76;100.00;101083.03;4970459;28;46185;-79
2022/03/12 09:57:34;;;;;;;;;7.00;6.00;;;;;10.48;100.00;101028.63;4977038;28;45499;-78
2022/03/12 10:00:00;;;;;;;;;5.67;5.67;;;;;10.47;100.00;101032.31;4983722;28;45509;-82
2022/03/12 10:02:26;;;;;;;;;5.00;5.00;;;;;11.00;100.00;101116.00;4976911;28;45292;-79
2022/03/12 10:04:53;;;;;;;;;10.67;7.00;;;;;10.19;100.00;100970.59;4972858;28;46226;-77
2022/03/12 10:07:18;;;;;;;;;8.33;6.33;;;;;11.08;100.00;101121.81;4973312;28;45497;-77
2022/03/12 10:09:44;;;;;;;;;12.00;8.67;;;;;11.12;100.00;101111.63;4973211;28;45626;-76
2022/03/12 10:12:10;;;;;;;;;10.67;8.00;;;;;10.88;100.00;101057.78;4973361;28;45544;-77
2022/03/12 10:14:35;;;;;;;;;5.00;5.00;;;;;10.48;100.00;100988.72;4972748;28;45981;-77
2022/03/12 10:17:02;;;;;;;;;8.00;6.67;;;;;11.23;100.00;101116.38;4972919;28;45548;-81
2022/03/12 10:19:29;;;;;;;;;7.00;7.00;;;;;10.42;100.00;100969.22;4973228;28;45521;-77
2022/03/12 10:21:55;;;;;;;;;5.00;4.00;;;;;10.07;100.00;100910.63;4972718;28;45623;-79
2022/03/12 10:24:20;;;;;;;;;6.33;5.00;;;;;11.18;100.00;101079.44;4971116;28;46739;-78
2022/03/12 10:26:46;;;;;;;;;7.00;5.67;;;;;11.12;100.00;101063.50;4973136;28;45429;-77
2022/03/12 10:29:13;;;;;;;;;5.33;5.00;;;;;11.08;100.00;101028.44;4973209;28;45565;-77
2022/03/12 10:31:39;;;;;;;;;5.33;4.33;;;;;10.42;100.00;100931.16;4978394;28;45738;-77
2022/03/12 10:34:14;;;;;;;;;3.67;3.67;;;;;11.46;100.00;101095.84;4978375;28;45941;-80
2022/03/12 10:36:39;;;;;;;;;5.67;4.00;;;;;11.49;100.00;101091.06;4974060;28;45472;-78
2022/03/12 10:39:05;;;;;;;;;5.67;3.00;;;;;9.68;100.00;100774.63;4972609;28;45568;-80
2022/03/12 10:41:31;;;;;;;;;7.00;5.00;;;;;11.53;100.00;101087.16;4972370;28;45608;-79
2022/03/12 10:43:57;;;;;;;;;4.00;4.00;;;;;11.41;100.00;101066.19;4972267;28;45885;-76
2022/03/12 10:46:27;;;;;;;;;9.00;7.00;;;;;11.59;100.00;101091.31;4972713;28;45846;-76
2022/03/12 10:48:56;;;;;;;;;4.33;4.33;;;;;11.63;100.00;101091.03;4972615;28;45446;-76
2022/03/12 10:51:27;;;;;;;;;5.00;5.00;;;;;11.54;100.00;101075.28;4971988;28;45500;-76
2022/03/12 10:54:08;;;;;;;;;5.33;4.67;;;;;11.34;100.00;101029.44;4964276;28;46234;-76
2022/03/12 10:56:46;;;;;;;;;4.67;4.67;;;;;11.75;100.00;101086.59;4972619;28;45624;-77
2022/03/12 10:59:14;;;;;;;;;11.33;7.67;;;;;11.70;100.00;101078.72;4961509;28;46032;-76
2022/03/12 11:01:54;;;;;;;;;9.33;8.00;;;;;11.72;100.00;101075.06;4967591;28;45558;-76
2022/03/12 11:04:29;;;;;;;;;8.67;8.67;;;;;10.91;100.00;100928.88;4974600;28;45526;-78
2022/03/12 11:06:57;;;;;;;;;6.67;4.67;;;;;11.21;100.00;100979.53;4970400;28;47714;-76
2022/03/12 11:09:39;;;;;;;;;10.33;7.33;;;;;11.87;100.00;101080.38;4972401;28;45510;-77
2022/03/12 11:12:30;;;;;;;;;9.33;9.33;;;;;11.89;100.00;101080.28;4972041;28;45573;-76
2022/03/12 11:15:04;;;;;;;;;7.00;7.00;;;;;11.91;100.00;101064.69;4971034;28;45473;-76
2022/03/12 11:17:40;;;;;;;;;12.33;10.33;;;;;11.30;100.00;100962.56;4971020;28;45566;-76
2022/03/12 11:20:06;;;;;;;;;11.00;9.00;;;;;11.92;100.00;101061.00;4974273;28;45482;-76